Lono, Arkansas
Current Conditions -  °F | °C
As of 12:56 PM on Wednesday 26 Nov 2014 (Local Time) from KADF Reporting Station
Clear Clear  
Wind Chill: 58°   Ceiling: Unl
Heat Index: 58°   Visibility: 10mi
Dew Point: 37°   Wind: 15mph
Humidity: 45%   Direction: 240°WSW
Pressure: 30.04"   Gusts: NA
Location:  34.2195°N, 92.6052°W
Report Text: KADF 261856Z AUTO 24013KT 10SM CLR 14/03 A3004 RMK AO2 T01440027 SLP187
Loading
Personal Weather Stations






























Interactive Weather Map New forecast layout! Learn more

10-Day Weather Forecast

Advertisements
Track Severe Weather on mobile